Pagrindinis puslapis
METAR-TAF:

METAR-TAF

Oro uostai :

Kalėdų sala, Australija

platuma: 10-26S, ilguma: 105-41E, Aukštis: 279 m

Dabartinis oras

Ataskaita buvo paskelbta 16 minutes, ne 21:00 UTC
Vėjas 10 kt iš Pietryčių
Temperatūra 24°C
Drėgmė 83%
Slėgis 1012 hPa
Matomumas 10 km arba daugiau
Su prošvaistėmis ne aukštis 1100 ft
Su prošvaistėmis ne aukštis 1800 ft
Apsiniaukę ne aukštis 2400 ft

METAR: YPXM 222100Z AUTO 13010KT 9999 // BKN011 BKN018 OVC024 24/21 Q1012

Laikas: 04:16 (21:16 UTC)

Prognozė

Ataskaita buvo paskelbta 4 valandos ir 7 minutes, ne 17:09 UTC
Prognozė galioja nuo 22 metu 18 UTC su 23 metu 18 UTC
Vėjas 10 kt iš Rytų/Pietryčių
Matomumas 10 km arba daugiau
Su prošvaistėmis ne aukštis 1200 ft
Nuo 23 metu 0900 UTC
Vėjas 10 kt iš Pietryčių
Matomumas 10 km arba daugiau
Su prošvaistėmis ne aukštis 800 ft

TAF: YPXM 221709Z 2218/2318 12010KT 9999 BKN012 FM230900 14010KT 9999 BKN008

Orai ataskaitas ir orų prognozės (METAR, TAF).

turimą stotys yra geltonos ir raudonos taškus žemėlapyje.

Perkelti pele per norėdami pamatyti stoties vardą.

Tada spustelėkite, norėdami matyti oro stebėjimo ir prognozės.

Norėdami pakeisti žemėlapį: spustelėkite ant žalios mygtukų su juodo kryžiaus žemyn,; žalią mygtuką su brūkšneliu, jei norite nutolinti; arba žalių rodyklių gretimoms žemėlapius.


METAR-TAF: